createdAt,value
2019-03-23T00:00:24.976Z,33.60
2019-03-23T00:02:54.852Z,32.13
2019-03-23T00:05:24.704Z,27.87
2019-03-23T00:07:54.489Z,31.35
2019-03-23T00:10:24.223Z,35.95
2019-03-23T00:12:53.964Z,29.98
2019-03-23T00:15:23.852Z,32.30
2019-03-23T00:17:53.604Z,26.68
2019-03-23T00:20:23.424Z,33.42
2019-03-23T00:22:53.163Z,34.07
2019-03-23T00:25:22.903Z,33.13
2019-03-23T00:27:52.668Z,32.45
2019-03-23T00:30:22.434Z,32.63
2019-03-23T00:32:52.181Z,34.27
2019-03-23T00:35:21.918Z,31.82
2019-03-23T00:37:51.657Z,35.88
2019-03-23T00:40:21.535Z,34.88
2019-03-23T00:42:51.258Z,39.38
2019-03-23T00:45:21.079Z,35.15
2019-03-23T00:47:50.776Z,34.08
2019-03-23T00:50:20.523Z,32.78
2019-03-23T00:52:51.320Z,33.08
2019-03-23T00:55:21.053Z,33.95
2019-03-23T00:57:50.794Z,30.12
2019-03-23T01:00:20.657Z,24.75
2019-03-23T01:02:50.467Z,30.17
2019-03-23T01:05:20.238Z,31.15
2019-03-23T01:07:49.974Z,32.23
2019-03-23T01:10:19.761Z,32.17
2019-03-23T01:12:49.498Z,33.25
2019-03-23T01:15:19.285Z,32.90
2019-03-23T01:17:49.128Z,34.33
2019-03-23T01:20:18.814Z,33.20
2019-03-23T01:22:48.628Z,31.50
2019-03-23T01:25:18.437Z,31.12
2019-03-23T01:27:48.237Z,34.60
2019-03-23T01:30:19.473Z,27.40
2019-03-23T01:32:49.279Z,34.70
2019-03-23T01:35:19.085Z,34.67
2019-03-23T01:37:48.986Z,33.60
2019-03-23T01:40:18.730Z,40.28
2019-03-23T01:42:48.471Z,33.90
2019-03-23T01:45:18.314Z,30.35
2019-03-23T01:47:48.118Z,35.28
2019-03-23T01:50:17.925Z,35.43
2019-03-23T01:52:47.624Z,34.43
2019-03-23T01:55:17.437Z,32.88
2019-03-23T01:57:47.270Z,36.15
2019-03-23T02:00:17.075Z,33.73
2019-03-23T02:02:47.638Z,35.15
2019-03-23T02:05:17.563Z,39.13
2019-03-23T02:07:47.385Z,34.95
2019-03-23T02:10:17.257Z,40.60
2019-03-23T02:12:47.013Z,37.78
2019-03-23T02:15:16.943Z,32.43
2019-03-23T02:17:46.701Z,38.40
2019-03-23T02:20:16.440Z,37.83
2019-03-23T02:22:46.213Z,35.40
2019-03-23T02:25:16.047Z,34.92
2019-03-23T02:27:45.801Z,33.98
2019-03-23T02:30:15.609Z,40.35
2019-03-23T02:32:45.373Z,38.97
2019-03-23T02:35:15.313Z,43.40
2019-03-23T02:37:45.125Z,50.38
2019-03-23T02:40:14.937Z,53.10
2019-03-23T02:42:44.631Z,55.27
2019-03-23T02:45:15.300Z,53.10
2019-03-23T02:47:45.099Z,56.90
2019-03-23T02:50:14.907Z,46.80
2019-03-23T02:52:44.654Z,49.83
2019-03-23T02:55:14.448Z,54.55
2019-03-23T02:57:44.266Z,48.70
2019-03-23T03:00:15.861Z,53.20
2019-03-23T03:02:45.710Z,50.28
2019-03-23T03:05:15.528Z,50.85
2019-03-23T03:07:45.325Z,59.00
2019-03-23T03:10:35.761Z,51.53
2019-03-23T03:13:05.508Z,52.58
2019-03-23T03:15:35.323Z,51.37
2019-03-23T03:18:06.425Z,46.77
2019-03-23T03:20:36.240Z,53.53
2019-03-23T03:23:05.970Z,53.40
2019-03-23T03:25:35.750Z,53.68
2019-03-23T03:28:05.701Z,49.83
2019-03-23T03:30:35.520Z,51.35
2019-03-23T03:33:05.228Z,50.63
2019-03-23T03:35:35.082Z,51.05
2019-03-23T03:38:04.840Z,47.70
2019-03-23T03:40:34.631Z,50.63
2019-03-23T03:43:04.460Z,49.45
2019-03-23T03:45:34.210Z,47.70
2019-03-23T03:48:04.022Z,51.28
2019-03-23T03:50:33.721Z,49.35
2019-03-23T03:53:03.529Z,49.00
2019-03-23T03:55:33.358Z,47.78
2019-03-23T03:58:03.244Z,50.52
2019-03-23T04:00:32.992Z,47.85
2019-03-23T04:03:02.871Z,47.17
2019-03-23T04:05:32.656Z,48.00
2019-03-23T04:08:10.919Z,47.65
2019-03-23T04:10:33.862Z,49.05
2019-03-23T04:13:04.615Z,52.50
2019-03-23T04:15:34.464Z,48.95
2019-03-23T04:18:04.417Z,48.87
2019-03-23T04:20:34.204Z,49.83
2019-03-23T04:23:03.961Z,49.53
2019-03-23T04:25:33.581Z,50.00
2019-03-23T04:28:03.339Z,51.73
2019-03-23T04:30:33.079Z,52.85
2019-03-23T04:33:03.243Z,40.20
2019-03-23T04:35:33.094Z,46.68
2019-03-23T04:38:02.897Z,44.83
2019-03-23T04:40:32.624Z,45.97
2019-03-23T04:43:02.973Z,45.08
2019-03-23T04:45:32.785Z,47.37
2019-03-23T04:48:02.522Z,49.18
2019-03-23T04:50:32.325Z,46.00
2019-03-23T04:53:02.126Z,46.97
2019-03-23T04:55:31.875Z,50.98
2019-03-23T04:58:01.631Z,48.28
2019-03-23T05:00:31.440Z,47.37
2019-03-23T05:03:01.271Z,51.35
2019-03-23T05:05:31.083Z,49.75
2019-03-23T05:08:00.801Z,50.90
2019-03-23T05:10:30.524Z,51.63
2019-03-23T05:13:00.372Z,54.60
2019-03-23T05:15:30.144Z,54.30
2019-03-23T05:18:00.946Z,55.38
2019-03-23T05:20:32.168Z,58.98
2019-03-23T05:23:02.947Z,62.50
2019-03-23T05:25:32.707Z,54.42
2019-03-23T05:28:02.439Z,56.20
2019-03-23T05:30:32.249Z,54.88
2019-03-23T05:33:01.936Z,59.90
2019-03-23T05:35:31.789Z,62.15
2019-03-23T05:38:02.543Z,57.15
2019-03-23T05:40:32.380Z,57.80
2019-03-23T05:43:02.213Z,59.10
2019-03-23T05:45:32.032Z,58.93
2019-03-23T05:48:01.924Z,63.48
2019-03-23T05:50:31.658Z,61.15
2019-03-23T05:53:01.409Z,63.28
2019-03-23T05:55:31.392Z,63.40
2019-03-23T05:58:01.215Z,61.30
2019-03-23T06:00:30.971Z,58.20
2019-03-23T06:03:00.835Z,62.13
2019-03-23T06:05:30.729Z,59.38
2019-03-23T06:08:00.419Z,63.65
2019-03-23T06:10:30.158Z,60.65
2019-03-23T06:12:59.914Z,61.63
2019-03-23T06:15:29.733Z,63.02
2019-03-23T06:17:59.561Z,60.28
2019-03-23T06:20:29.379Z,60.30
2019-03-23T06:22:59.063Z,56.45
2019-03-23T06:25:28.954Z,58.92
2019-03-23T06:27:58.712Z,60.60
2019-03-23T06:30:28.459Z,61.45
2019-03-23T06:32:59.405Z,61.10
2019-03-23T06:35:29.355Z,59.30
2019-03-23T06:37:59.168Z,61.33
2019-03-23T06:40:30.048Z,56.57
2019-03-23T06:43:00.153Z,57.85
2019-03-23T06:45:30.100Z,61.37
2019-03-23T06:47:59.840Z,57.90
2019-03-23T06:50:29.650Z,61.90
2019-03-23T06:52:59.448Z,57.88
2019-03-23T06:55:29.135Z,53.15
2019-03-23T06:57:58.972Z,57.20
2019-03-23T07:00:28.687Z,54.60
2019-03-23T07:02:58.420Z,57.67
2019-03-23T07:05:28.249Z,57.15
2019-03-23T07:07:59.149Z,54.03
2019-03-23T07:10:28.977Z,45.55
2019-03-23T07:12:58.868Z,47.17
2019-03-23T07:15:28.567Z,50.67
2019-03-23T07:17:58.387Z,49.55
2019-03-23T07:20:28.547Z,51.15
2019-03-23T07:22:58.285Z,56.60
2019-03-23T07:25:27.981Z,52.93
2019-03-23T07:27:57.806Z,51.07
2019-03-23T07:30:27.595Z,51.68
2019-03-23T07:32:57.326Z,53.95
2019-03-23T07:35:27.070Z,51.67
2019-03-23T07:37:56.899Z,39.15
2019-03-23T07:40:26.592Z,43.85
2019-03-23T07:42:56.404Z,52.13
2019-03-23T07:45:26.226Z,55.17
2019-03-23T07:47:56.020Z,58.23
2019-03-23T07:50:25.830Z,60.63
2019-03-23T07:52:55.703Z,59.03
2019-03-23T08:01:39.987Z,15.10
2019-03-23T08:04:09.889Z,14.00
2019-03-23T08:06:39.623Z,14.18
2019-03-23T08:09:19.765Z,12.33
2019-03-23T08:11:40.923Z,11.68
2019-03-23T08:14:10.914Z,12.47
2019-03-23T08:16:40.867Z,10.88
2019-03-23T08:19:10.664Z,13.75
2019-03-23T08:21:40.417Z,12.15
2019-03-23T08:24:10.282Z,13.75
2019-03-23T08:26:40.010Z,11.13
2019-03-23T08:29:10.019Z,12.03
2019-03-23T08:31:40.996Z,13.75
2019-03-23T08:34:10.949Z,11.15
2019-03-23T08:36:40.802Z,10.30
2019-03-23T08:39:10.757Z,11.12
2019-03-23T08:41:40.709Z,12.23
2019-03-23T08:44:10.661Z,10.45
2019-03-23T08:46:40.515Z,10.32
2019-03-23T08:49:11.490Z,9.15
2019-03-23T08:51:42.468Z,16.07
2019-03-23T08:54:12.264Z,11.00
2019-03-23T08:56:42.070Z,9.98
2019-03-23T08:59:12.023Z,10.63
2019-03-23T09:01:41.742Z,11.30
2019-03-23T09:04:11.471Z,11.85
2019-03-23T09:06:41.473Z,9.33
2019-03-23T09:09:11.426Z,10.80
2019-03-23T09:11:41.383Z,11.27
2019-03-23T09:14:11.231Z,11.12
2019-03-23T09:16:41.092Z,9.80
2019-03-23T09:19:11.038Z,13.00
2019-03-23T09:21:40.993Z,12.30
2019-03-23T09:24:10.718Z,11.68
2019-03-23T09:26:40.591Z,11.45
2019-03-23T09:29:10.544Z,11.67
2019-03-23T09:31:40.499Z,11.28
2019-03-23T09:34:10.452Z,10.27
2019-03-23T09:36:41.359Z,9.40
2019-03-23T09:39:11.384Z,9.33
2019-03-23T09:41:41.337Z,11.68
2019-03-23T09:44:12.109Z,11.40
2019-03-23T09:46:42.062Z,10.90
2019-03-23T09:49:11.792Z,13.20
2019-03-23T09:51:41.616Z,11.65
2019-03-23T09:54:11.513Z,10.98
2019-03-23T09:56:42.183Z,12.23
2019-03-23T09:59:12.139Z,11.33
2019-03-23T10:01:42.091Z,10.72
2019-03-23T10:04:12.046Z,10.53
2019-03-23T10:06:41.999Z,9.15
2019-03-23T10:09:11.954Z,13.53
2019-03-23T10:11:41.906Z,11.10
2019-03-23T10:14:11.860Z,11.68
2019-03-23T10:16:41.636Z,16.37
2019-03-23T10:19:11.463Z,13.53
2019-03-23T10:21:41.287Z,17.02
2019-03-23T10:24:11.049Z,14.00
2019-03-23T10:26:40.958Z,16.97
2019-03-23T10:29:10.634Z,15.00
2019-03-23T10:31:40.519Z,15.03
2019-03-23T10:34:10.267Z,13.38
2019-03-23T10:36:40.896Z,15.10
2019-03-23T10:39:11.441Z,15.30
2019-03-23T10:41:41.305Z,19.17
2019-03-23T10:44:11.089Z,14.68
2019-03-23T10:46:40.831Z,13.85
2019-03-23T10:49:10.532Z,12.47
2019-03-23T10:51:40.550Z,11.35
2019-03-23T10:54:10.503Z,13.63
2019-03-23T10:56:40.665Z,11.78
2019-03-23T10:59:10.515Z,12.05
2019-03-23T11:01:40.467Z,13.88
2019-03-23T11:04:10.411Z,16.62
2019-03-23T11:06:40.375Z,15.05
2019-03-23T11:09:10.250Z,13.88
2019-03-23T11:11:40.178Z,16.20
2019-03-23T11:14:10.135Z,15.77
2019-03-23T11:16:39.956Z,15.65
2019-03-23T11:19:13.652Z,25.72
2019-03-23T11:21:41.144Z,18.12
2019-03-23T11:24:10.944Z,17.60
2019-03-23T11:26:40.714Z,18.50
2019-03-23T11:29:10.460Z,18.77
2019-03-23T11:31:40.132Z,14.55
2019-03-23T11:34:17.584Z,12.70
2019-03-23T11:36:41.332Z,14.07
2019-03-23T11:39:12.308Z,13.15
2019-03-23T11:41:42.012Z,12.85
2019-03-23T11:44:11.727Z,12.63
2019-03-23T11:46:41.517Z,11.95
2019-03-23T11:49:11.266Z,12.40
2019-03-23T11:51:41.092Z,11.33
2019-03-23T11:54:10.815Z,12.07
2019-03-23T11:56:40.662Z,14.30
2019-03-23T11:59:10.433Z,16.15
2019-03-23T12:01:40.284Z,13.43
2019-03-23T12:04:10.167Z,12.88
2019-03-23T12:06:40.045Z,13.72
2019-03-23T12:09:09.948Z,11.33
2019-03-23T12:11:39.738Z,11.68
2019-03-23T12:14:09.504Z,12.70
2019-03-23T12:16:39.372Z,10.43
2019-03-23T12:19:09.130Z,9.08
2019-03-23T12:21:38.859Z,12.95
2019-03-23T12:24:08.612Z,10.67
2019-03-23T12:26:38.424Z,10.40
2019-03-23T12:29:08.329Z,11.78
2019-03-23T12:31:38.082Z,10.18
2019-03-23T12:34:07.893Z,9.63
2019-03-23T12:36:37.929Z,12.20
2019-03-23T12:39:07.845Z,13.48
2019-03-23T12:41:37.585Z,10.43
2019-03-23T12:44:07.336Z,10.80
2019-03-23T12:46:47.696Z,10.88
2019-03-23T12:49:08.516Z,13.43
2019-03-23T12:51:38.213Z,10.63
2019-03-23T12:54:08.027Z,11.85
2019-03-23T12:56:37.823Z,11.45
2019-03-23T12:59:07.680Z,10.20
2019-03-23T13:01:37.421Z,13.22
2019-03-23T13:04:07.235Z,10.75
2019-03-23T13:06:37.091Z,11.18
2019-03-23T13:09:07.822Z,9.93
2019-03-23T13:11:37.579Z,10.65
2019-03-23T13:14:07.271Z,10.08
2019-03-23T13:16:37.108Z,10.88
2019-03-23T13:19:06.893Z,14.83
2019-03-23T13:21:36.689Z,12.37
2019-03-23T13:24:06.445Z,12.40
2019-03-23T13:26:36.196Z,14.05
2019-03-23T13:29:05.944Z,12.18
2019-03-23T13:31:35.644Z,11.95
2019-03-23T13:34:05.392Z,10.40
2019-03-23T13:36:36.079Z,10.82
2019-03-23T13:39:06.613Z,9.73
2019-03-23T13:41:44.652Z,10.18
2019-03-23T13:44:09.340Z,10.47
2019-03-23T13:46:39.142Z,9.70
2019-03-23T13:49:08.944Z,10.90
2019-03-23T13:51:38.628Z,9.43
2019-03-23T13:54:08.461Z,11.25
2019-03-23T13:56:38.149Z,7.60
2019-03-23T13:59:07.967Z,8.75
2019-03-23T14:01:37.748Z,10.40
2019-03-23T14:04:07.550Z,9.28
2019-03-23T14:06:37.483Z,8.90
2019-03-23T14:09:07.499Z,8.43
2019-03-23T14:11:37.284Z,9.05
2019-03-23T14:14:07.309Z,7.17
2019-03-23T14:16:37.027Z,8.15
2019-03-23T14:19:06.971Z,8.10
2019-03-23T14:21:36.773Z,7.50
2019-03-23T14:24:07.677Z,9.55
2019-03-23T14:26:37.419Z,9.07
2019-03-23T14:29:07.152Z,6.92
2019-03-23T14:31:36.914Z,11.15
2019-03-23T14:34:06.720Z,9.88
2019-03-23T14:36:36.465Z,6.97
2019-03-23T14:39:07.242Z,6.37
2019-03-23T14:41:37.043Z,7.53
2019-03-23T14:44:06.848Z,8.87
2019-03-23T14:46:36.592Z,8.00
2019-03-23T14:49:06.395Z,9.00
2019-03-23T14:51:36.207Z,6.87
2019-03-23T14:54:05.922Z,7.40
2019-03-23T14:56:35.812Z,6.53
2019-03-23T14:59:05.680Z,7.72
2019-03-23T15:01:35.562Z,7.60
2019-03-23T15:04:05.303Z,7.78
2019-03-23T15:06:34.984Z,8.05
2019-03-23T15:09:06.533Z,6.20
2019-03-23T15:11:36.254Z,8.70
2019-03-23T15:14:06.044Z,6.37
2019-03-23T15:16:35.811Z,7.35
2019-03-23T15:19:05.764Z,6.92
2019-03-23T15:21:35.515Z,6.20
2019-03-23T15:24:05.244Z,7.62
2019-03-23T15:26:35.004Z,7.05
2019-03-23T15:29:04.828Z,6.65
2019-03-23T15:31:34.703Z,6.58
2019-03-23T15:34:04.386Z,5.83
2019-03-23T15:36:34.148Z,5.73
2019-03-23T15:39:05.432Z,7.10
2019-03-23T15:41:35.332Z,6.50
2019-03-23T15:44:05.075Z,6.20
2019-03-23T15:46:34.875Z,5.70
2019-03-23T15:49:04.624Z,6.33
2019-03-23T15:51:34.470Z,5.60
2019-03-23T15:54:04.223Z,5.55
2019-03-23T15:56:34.009Z,5.53
2019-03-23T15:59:03.691Z,7.00
2019-03-23T16:01:33.569Z,5.97
2019-03-23T16:04:03.365Z,5.80
2019-03-23T16:06:33.111Z,5.60
2019-03-23T16:09:02.842Z,4.85
2019-03-23T16:11:32.592Z,4.35
2019-03-23T16:14:02.392Z,7.22
2019-03-23T16:16:32.125Z,5.37
2019-03-23T16:19:01.807Z,4.33
2019-03-23T16:21:31.553Z,4.78
2019-03-23T16:24:01.438Z,5.78
2019-03-23T16:26:31.249Z,7.33
2019-03-23T16:29:00.984Z,3.75
2019-03-23T16:31:30.759Z,7.10
2019-03-23T16:34:00.661Z,6.17
2019-03-23T16:36:30.552Z,5.35
2019-03-23T16:39:01.245Z,6.55
2019-03-23T16:41:32.056Z,7.57
2019-03-23T16:44:01.793Z,5.97
2019-03-23T16:46:31.860Z,6.55
2019-03-23T16:49:01.606Z,6.00
2019-03-23T16:51:31.389Z,7.08
2019-03-23T16:54:01.139Z,5.80
2019-03-23T16:56:30.980Z,5.40
2019-03-23T16:59:00.850Z,6.92
2019-03-23T17:01:30.756Z,8.20
2019-03-23T17:04:00.552Z,7.83
2019-03-23T17:06:30.245Z,5.08
2019-03-23T17:09:00.132Z,8.13
2019-03-23T17:11:29.967Z,7.47
2019-03-23T17:13:59.740Z,7.67
2019-03-23T17:16:29.540Z,6.15
2019-03-23T17:18:59.311Z,7.55
2019-03-23T17:21:29.185Z,6.50
2019-03-23T17:23:58.873Z,6.85
2019-03-23T17:26:28.644Z,6.97
2019-03-23T17:28:58.464Z,6.22
2019-03-23T17:31:28.194Z,5.65
2019-03-23T17:33:57.942Z,6.17
2019-03-23T17:36:27.751Z,7.20
2019-03-23T17:38:57.504Z,6.70
2019-03-23T17:41:27.239Z,5.83
2019-03-23T17:43:57.070Z,6.83
2019-03-23T17:46:27.824Z,5.80
2019-03-23T17:48:57.682Z,6.47
2019-03-23T17:51:27.537Z,7.03
2019-03-23T17:53:59.023Z,7.37
2019-03-23T17:56:29.128Z,7.87
2019-03-23T17:58:58.936Z,7.03
2019-03-23T18:01:28.812Z,6.45
2019-03-23T18:03:58.665Z,7.10
2019-03-23T18:06:28.434Z,6.27
2019-03-23T18:08:58.227Z,7.72
2019-03-23T18:11:28.008Z,6.75
2019-03-23T18:13:57.763Z,7.33
2019-03-23T18:16:27.553Z,6.87
2019-03-23T18:18:57.231Z,7.37
2019-03-23T18:21:27.027Z,6.55
2019-03-23T18:23:57.828Z,6.95
2019-03-23T18:26:27.640Z,10.65
2019-03-23T18:28:58.544Z,8.28
2019-03-23T18:31:29.188Z,7.10
2019-03-23T18:33:59.069Z,9.38
2019-03-23T18:36:28.755Z,7.53
2019-03-23T18:38:58.477Z,8.53
2019-03-23T18:41:28.796Z,9.35
2019-03-23T18:43:58.481Z,9.27
2019-03-23T18:46:28.482Z,7.53
2019-03-23T18:48:58.236Z,7.80
2019-03-23T18:51:27.977Z,8.90
2019-03-23T18:53:57.807Z,10.13
2019-03-23T18:56:27.615Z,14.58
2019-03-23T18:58:57.352Z,11.50
2019-03-23T19:01:27.119Z,11.10
2019-03-23T19:03:56.804Z,10.85
2019-03-23T19:06:26.660Z,8.90
2019-03-23T19:08:56.540Z,7.67
2019-03-23T19:11:26.943Z,11.37
2019-03-23T19:13:56.736Z,8.85
2019-03-23T19:16:26.560Z,8.68
2019-03-23T19:18:56.313Z,8.13
2019-03-23T19:21:26.195Z,9.73
2019-03-23T19:23:55.992Z,9.75
2019-03-23T19:26:25.733Z,8.58
2019-03-23T19:28:55.542Z,8.18
2019-03-23T19:31:25.408Z,7.62
2019-03-23T19:33:55.221Z,9.05
2019-03-23T19:36:25.112Z,8.50
2019-03-23T19:38:54.985Z,11.40
2019-03-23T19:41:24.812Z,5.97
2019-03-23T19:43:54.595Z,6.60
2019-03-23T19:46:24.456Z,9.03
2019-03-23T19:48:54.209Z,8.57
2019-03-23T19:51:24.018Z,8.18
2019-03-23T19:53:53.704Z,8.30
2019-03-23T19:56:23.448Z,7.05
2019-03-23T19:58:53.196Z,6.87
2019-03-23T20:01:22.913Z,7.33
2019-03-23T20:03:52.699Z,8.05
2019-03-23T20:06:22.487Z,9.50
2019-03-23T20:08:52.312Z,7.92
2019-03-23T20:11:22.196Z,8.18
2019-03-23T20:13:58.783Z,8.58
2019-03-23T20:16:23.547Z,7.17
2019-03-23T20:18:53.328Z,8.23
2019-03-23T20:21:23.116Z,10.32
2019-03-23T20:23:52.845Z,8.33
2019-03-23T20:26:23.648Z,9.03
2019-03-23T20:28:53.440Z,6.78
2019-03-23T20:31:23.237Z,6.70
2019-03-23T20:33:53.051Z,9.38
2019-03-23T20:36:22.796Z,8.73
2019-03-23T20:38:52.600Z,6.20
2019-03-23T20:41:22.547Z,7.42
2019-03-23T20:43:52.407Z,6.78
2019-03-23T20:46:23.537Z,8.25
2019-03-23T20:48:53.532Z,8.98
2019-03-23T20:51:23.465Z,6.60
2019-03-23T20:53:53.329Z,8.00
2019-03-23T20:56:23.149Z,7.53
2019-03-23T20:58:53.009Z,7.67
2019-03-23T21:01:22.786Z,12.75
2019-03-23T21:03:52.575Z,7.80
2019-03-23T21:06:22.388Z,6.35
2019-03-23T21:08:52.170Z,7.37
2019-03-23T21:11:21.854Z,5.90
2019-03-23T21:13:51.636Z,8.77
2019-03-23T21:16:21.483Z,8.25
2019-03-23T21:18:51.285Z,6.87
2019-03-23T21:21:21.033Z,6.90
2019-03-23T21:23:52.106Z,6.63
2019-03-23T21:26:22.088Z,7.75
2019-03-23T21:28:51.900Z,7.15
2019-03-23T21:31:21.592Z,5.92
2019-03-23T21:33:51.488Z,7.78
2019-03-23T21:36:21.400Z,7.63
2019-03-23T21:38:51.212Z,7.75
2019-03-23T21:41:20.966Z,5.80
2019-03-23T21:43:50.852Z,6.97
2019-03-23T21:46:20.535Z,9.73
2019-03-23T21:48:50.332Z,6.47
2019-03-23T21:51:20.140Z,8.50
2019-03-23T21:53:49.941Z,6.42
2019-03-23T21:56:19.693Z,9.83
2019-03-23T21:58:49.493Z,5.35
2019-03-23T22:01:19.175Z,6.30
2019-03-23T22:03:48.906Z,8.50
2019-03-23T22:06:18.731Z,9.15
2019-03-23T22:08:48.605Z,8.17
2019-03-23T22:11:18.352Z,6.22
2019-03-23T22:13:48.148Z,7.37
2019-03-23T22:16:17.894Z,9.93
2019-03-23T22:18:47.703Z,7.10
2019-03-23T22:21:17.572Z,7.62
2019-03-23T22:23:47.253Z,6.80
2019-03-23T22:26:18.156Z,8.10
2019-03-23T22:28:47.908Z,9.23
2019-03-23T22:31:17.791Z,10.38
2019-03-23T22:33:47.497Z,6.72
2019-03-23T22:36:17.295Z,9.35
2019-03-23T22:38:47.051Z,7.78
2019-03-23T22:41:16.851Z,6.10
2019-03-23T22:43:46.601Z,9.50
2019-03-23T22:46:16.413Z,9.63
2019-03-23T22:48:46.091Z,10.35
2019-03-23T22:51:15.825Z,7.72
2019-03-23T22:53:45.545Z,9.05
2019-03-23T22:56:15.346Z,8.30
2019-03-23T22:58:45.135Z,9.77
2019-03-23T23:01:14.833Z,10.25
2019-03-23T23:03:44.633Z,9.83
2019-03-23T23:06:14.421Z,7.67
2019-03-23T23:08:44.156Z,7.50
2019-03-23T23:11:13.964Z,9.33
2019-03-23T23:13:43.765Z,7.80
2019-03-23T23:16:13.642Z,11.55
2019-03-23T23:18:43.443Z,8.83
2019-03-23T23:21:13.196Z,10.37
2019-03-23T23:23:42.924Z,8.58
2019-03-23T23:26:12.740Z,8.65
2019-03-23T23:28:42.487Z,8.50
2019-03-23T23:31:12.305Z,11.68
2019-03-23T23:33:42.047Z,9.00
2019-03-23T23:36:11.843Z,8.40
2019-03-23T23:38:42.684Z,8.65
2019-03-23T23:41:12.489Z,9.05
2019-03-23T23:43:42.294Z,8.40
2019-03-23T23:46:12.045Z,9.60
2019-03-23T23:48:50.874Z,10.63
2019-03-23T23:51:13.162Z,9.83
2019-03-23T23:53:42.972Z,8.98
2019-03-23T23:56:12.673Z,9.10
2019-03-23T23:58:42.461Z,7.53
